Terminal Aerodrome Forecast
Issued by NWS

Home | Current Version | Previous Version | Text Only | Print | Product List | Glossary On
Versions: 1 2 3 4 5 6 7 8 9 10 11 12 13 14
000
FTUS45 KLKN 290520
TAFEKO
TAF
KEKO 290520Z 2906/3006 VRB06KT P6SM VCSH SCT040 BKN060
     FM290900 VRB05KT P6SM SCT060 BKN080
     FM291800 26011KT P6SM -RA SCT040 BKN060
     FM292100 26011KT P6SM -RA VCTS SCT035 BKN050CB
     FM300200 VRB06KT 5SM -RA BKN035=

USA.gov is the U.S. government's official web portal to all federal, state and local government web resources and services.